createdAt,value
2022-09-23T00:00:37.752Z,7.30
2022-09-23T00:06:06.506Z,8.90
2022-09-23T00:16:20.258Z,8.50
2022-09-23T00:21:23.221Z,7.90
2022-09-23T00:26:26.001Z,8.30
2022-09-23T00:31:28.906Z,7.40
2022-09-23T00:36:32.443Z,7.80
2022-09-23T00:41:36.176Z,9.30
2022-09-23T00:46:41.386Z,9.00
2022-09-23T00:51:50.382Z,6.70
2022-09-23T00:56:54.531Z,8.10
2022-09-23T01:01:58.045Z,8.30
2022-09-23T01:07:00.857Z,6.60
2022-09-23T01:12:23.434Z,7.60
2022-09-23T01:17:48.125Z,6.50
2022-09-23T01:23:00.161Z,7.80
2022-09-23T01:28:21.679Z,6.80
2022-09-23T01:33:51.779Z,9.80
2022-09-23T01:39:10.693Z,9.50
2022-09-23T01:49:25.620Z,7.10
2022-09-23T01:55:13.552Z,7.00
2022-09-23T02:00:18.161Z,5.90
2022-09-23T02:05:43.850Z,7.00
2022-09-23T02:11:18.245Z,7.80
2022-09-23T02:16:41.729Z,7.80
2022-09-23T02:21:52.559Z,7.20
2022-09-23T02:26:59.901Z,8.00
2022-09-23T02:32:32.721Z,8.40
2022-09-23T02:37:58.226Z,8.40
2022-09-23T02:43:32.259Z,7.70
2022-09-23T02:49:04.377Z,8.60
2022-09-23T02:54:10.621Z,7.60
2022-09-23T02:59:13.488Z,7.70
2022-09-23T03:04:50.555Z,8.60
2022-09-23T03:10:22.614Z,7.60
2022-09-23T03:15:37.978Z,8.40
2022-09-23T03:20:59.170Z,9.50
2022-09-23T03:26:27.851Z,9.00
2022-09-23T03:31:32.483Z,8.60
2022-09-23T03:37:18.030Z,10.10
2022-09-23T03:42:30.175Z,11.40
2022-09-23T03:47:33.070Z,10.20
2022-09-23T03:52:35.849Z,9.10
2022-09-23T03:57:38.672Z,9.50
2022-09-23T04:02:41.716Z,10.90
2022-09-23T04:07:44.533Z,10.80
2022-09-23T04:12:47.276Z,11.10
2022-09-23T04:17:50.102Z,8.50
2022-09-23T04:22:52.905Z,12.10
2022-09-23T04:27:55.754Z,10.30
2022-09-23T04:32:58.498Z,9.20
2022-09-23T04:38:01.362Z,10.90
2022-09-23T04:43:04.220Z,11.60
2022-09-23T04:48:07.299Z,10.40
2022-09-23T04:53:10.424Z,15.40
2022-09-23T04:58:13.178Z,12.70
2022-09-23T05:03:16.648Z,16.80
2022-09-23T05:08:19.559Z,10.10
2022-09-23T05:13:22.455Z,10.10
2022-09-23T05:18:25.281Z,9.80
2022-09-23T05:23:28.476Z,8.20
2022-09-23T05:28:32.773Z,10.50
2022-09-23T05:33:36.634Z,11.40
2022-09-23T05:38:40.323Z,11.80
2022-09-23T05:43:43.397Z,11.60
2022-09-23T05:48:47.289Z,11.30
2022-09-23T05:53:54.230Z,10.40
2022-09-23T05:58:58.845Z,10.90
2022-09-23T06:04:03.281Z,11.60
2022-09-23T06:09:06.823Z,9.10
2022-09-23T06:14:12.587Z,12.50
2022-09-23T06:19:15.444Z,12.80
2022-09-23T06:24:22.113Z,10.00
2022-09-23T06:29:26.749Z,11.40
2022-09-23T06:34:30.786Z,10.20
2022-09-23T06:39:35.005Z,9.00
2022-09-23T06:44:37.813Z,12.40
2022-09-23T06:49:40.807Z,10.30
2022-09-23T06:54:43.555Z,10.40
2022-09-23T06:59:46.402Z,12.70
2022-09-23T07:04:49.253Z,9.60
2022-09-23T07:09:52.781Z,8.30
2022-09-23T07:14:57.329Z,9.40
2022-09-23T07:20:00.593Z,8.20
2022-09-23T07:25:03.912Z,8.10
2022-09-23T07:30:12.319Z,9.50
2022-09-23T07:35:19.660Z,7.70
2022-09-23T07:40:23.528Z,8.60
2022-09-23T07:45:27.562Z,6.60
2022-09-23T07:50:32.332Z,7.90
2022-09-23T07:55:35.922Z,2.10
2022-09-23T08:00:38.684Z,3.20
2022-09-23T08:05:42.129Z,5.20
2022-09-23T08:10:45.987Z,5.10
2022-09-23T08:15:53.248Z,1.60
2022-09-23T08:20:58.242Z,1.20
2022-09-23T08:26:03.392Z,1.10
2022-09-23T08:31:07.476Z,2.80
2022-09-23T08:36:11.518Z,3.20
2022-09-23T08:41:58.529Z,2.70
2022-09-23T08:47:26.157Z,3.40
2022-09-23T08:52:41.221Z,4.10
2022-09-23T08:58:26.389Z,2.90
2022-09-23T09:03:36.186Z,4.20
2022-09-23T09:08:41.416Z,2.10
2022-09-23T09:13:53.498Z,2.30
2022-09-23T09:18:58.987Z,6.10
2022-09-23T09:24:01.855Z,2.70
2022-09-23T09:34:47.837Z,4.60
2022-09-23T09:39:50.749Z,4.30
2022-09-23T09:45:05.045Z,4.50
2022-09-23T09:50:39.046Z,3.60
2022-09-23T09:55:42.017Z,4.40
2022-09-23T10:00:45.805Z,3.10
2022-09-23T10:05:52.382Z,5.10
2022-09-23T10:11:08.220Z,3.30
2022-09-23T10:16:11.127Z,2.80
2022-09-23T10:21:16.974Z,2.70
2022-09-23T10:26:50.912Z,0.90
2022-09-23T10:32:30.092Z,0.80
2022-09-23T10:37:37.018Z,2.30
2022-09-23T10:43:19.915Z,0.60
2022-09-23T10:48:28.527Z,0.90
2022-09-23T10:54:10.656Z,1.00
2022-09-23T10:59:40.169Z,1.40
2022-09-23T11:04:57.976Z,1.00
2022-09-23T11:10:47.106Z,0.70
2022-09-23T11:16:09.322Z,1.60
2022-09-23T11:21:59.234Z,3.00
2022-09-23T11:27:17.515Z,2.50
2022-09-23T11:32:31.146Z,1.20
2022-09-23T11:37:37.750Z,1.90
2022-09-23T11:43:07.673Z,1.50
2022-09-23T11:48:26.069Z,1.70
2022-09-23T11:53:44.524Z,1.60
2022-09-23T11:59:36.541Z,1.20
2022-09-23T12:04:56.961Z,1.30
2022-09-23T12:10:05.888Z,2.20
2022-09-23T12:15:54.585Z,1.20
2022-09-23T12:21:45.712Z,1.70
2022-09-23T12:26:42.616Z,1.70
2022-09-23T12:31:46.865Z,2.20
2022-09-23T12:36:52.794Z,1.30
2022-09-23T12:42:11.089Z,0.40
2022-09-23T12:47:28.076Z,0.70
2022-09-23T12:52:32.292Z,1.90
2022-09-23T12:57:35.048Z,1.20
2022-09-23T13:02:43.124Z,1.10
2022-09-23T13:07:47.814Z,0.60
2022-09-23T13:12:50.648Z,1.10
2022-09-23T13:17:53.493Z,2.10
2022-09-23T13:22:56.314Z,1.40
2022-09-23T13:28:01.741Z,1.10
2022-09-23T13:33:14.576Z,1.50
2022-09-23T13:38:29.762Z,1.30
2022-09-23T13:43:41.630Z,2.50
2022-09-23T13:48:46.376Z,4.00
2022-09-23T13:53:57.621Z,1.50
2022-09-23T13:59:47.104Z,1.80
2022-09-23T14:04:51.021Z,1.90
2022-09-23T14:09:55.460Z,1.20
2022-09-23T14:14:58.196Z,1.40
2022-09-23T14:20:01.224Z,2.30
2022-09-23T14:25:04.250Z,2.00
2022-09-23T14:30:19.000Z,1.10
2022-09-23T14:35:27.070Z,1.30
2022-09-23T14:40:51.095Z,1.30
2022-09-23T14:46:00.098Z,2.00
2022-09-23T14:51:06.239Z,1.50
2022-09-23T14:56:20.349Z,1.20
2022-09-23T15:01:32.696Z,1.60
2022-09-23T15:06:42.601Z,2.90
2022-09-23T15:11:45.450Z,2.00
2022-09-23T15:16:48.815Z,1.40
2022-09-23T15:21:52.909Z,2.20
2022-09-23T15:26:57.945Z,2.10
2022-09-23T15:32:01.132Z,2.10
2022-09-23T15:37:03.956Z,1.40
2022-09-23T15:42:10.332Z,2.00
2022-09-23T15:47:17.233Z,4.40
2022-09-23T15:52:22.909Z,2.80
2022-09-23T15:57:26.137Z,3.60
2022-09-23T16:02:28.981Z,3.10
2022-09-23T16:07:31.907Z,3.40
2022-09-23T16:12:34.677Z,4.80
2022-09-23T16:17:37.799Z,2.40
2022-09-23T16:22:40.564Z,7.20
2022-09-23T16:27:43.392Z,2.50
2022-09-23T16:32:46.186Z,7.20
2022-09-23T16:37:49.243Z,2.20
2022-09-23T16:42:54.302Z,2.80
2022-09-23T16:47:57.174Z,1.40
2022-09-23T16:53:00.008Z,4.10
2022-09-23T16:58:02.759Z,3.30
2022-09-23T17:03:24.574Z,4.50
2022-09-23T17:08:27.343Z,4.10
2022-09-23T17:13:31.103Z,4.30
2022-09-23T17:18:34.515Z,5.20
2022-09-23T17:23:37.640Z,19.20
2022-09-23T17:28:40.414Z,10.40
2022-09-23T17:33:43.325Z,10.60
2022-09-23T17:38:48.153Z,7.00
2022-09-23T17:43:57.221Z,5.50
2022-09-23T17:48:59.955Z,5.20
2022-09-23T17:54:02.728Z,5.80
2022-09-23T17:59:05.594Z,3.50
2022-09-23T18:04:08.459Z,3.60
2022-09-23T18:09:11.404Z,4.70
2022-09-23T18:14:16.551Z,4.20
2022-09-23T18:19:21.438Z,4.10
2022-09-23T18:24:33.156Z,5.70
2022-09-23T18:29:37.828Z,8.50
2022-09-23T18:34:40.658Z,5.90
2022-09-23T18:39:43.543Z,7.00
2022-09-23T18:44:47.140Z,5.50
2022-09-23T18:50:08.909Z,8.00
2022-09-23T18:55:12.696Z,9.20
2022-09-23T19:00:15.837Z,7.00
2022-09-23T19:05:19.133Z,7.80
2022-09-23T19:10:22.297Z,8.00
2022-09-23T19:15:25.095Z,4.80
2022-09-23T19:20:29.386Z,3.90
2022-09-23T19:25:32.230Z,5.00
2022-09-23T19:30:35.679Z,4.10
2022-09-23T19:35:53.580Z,7.10
2022-09-23T19:40:56.486Z,6.10
2022-09-23T19:45:59.227Z,4.80
2022-09-23T19:51:02.673Z,5.30
2022-09-23T19:56:06.022Z,8.00
2022-09-23T20:01:08.992Z,7.40
2022-09-23T20:06:11.871Z,5.40
2022-09-23T20:11:27.633Z,6.50
2022-09-23T20:16:34.352Z,7.00
2022-09-23T20:21:37.371Z,9.10
2022-09-23T20:26:58.918Z,7.50
2022-09-23T20:32:02.170Z,6.00
2022-09-23T20:37:06.086Z,6.60
2022-09-23T20:42:09.346Z,5.60
2022-09-23T20:47:14.176Z,7.00
2022-09-23T20:52:17.891Z,6.10
2022-09-23T20:57:20.874Z,6.60
2022-09-23T21:02:25.532Z,6.10
2022-09-23T21:07:28.382Z,6.90
2022-09-23T21:12:31.764Z,6.50
2022-09-23T21:17:34.662Z,6.90
2022-09-23T21:22:37.643Z,6.10
2022-09-23T21:27:40.516Z,6.60
2022-09-23T21:32:44.709Z,8.90
2022-09-23T21:37:47.580Z,7.70
2022-09-23T21:42:50.820Z,8.10
2022-09-23T21:47:54.693Z,7.50
2022-09-23T21:52:58.440Z,8.10
2022-09-23T21:58:01.273Z,11.10
2022-09-23T22:03:04.186Z,9.70
2022-09-23T22:08:09.140Z,7.50
2022-09-23T22:13:13.065Z,7.90
2022-09-23T22:18:19.354Z,7.80
2022-09-23T22:23:22.142Z,11.50
2022-09-23T22:28:44.093Z,12.60
2022-09-23T22:33:50.670Z,7.40
2022-09-23T22:38:59.066Z,6.40
2022-09-23T22:44:03.448Z,7.40
2022-09-23T22:49:07.568Z,9.90
2022-09-23T22:54:10.863Z,7.50
2022-09-23T22:59:13.990Z,9.00
2022-09-23T23:04:16.865Z,7.30
2022-09-23T23:09:19.698Z,7.10
2022-09-23T23:14:22.537Z,6.70
2022-09-23T23:19:26.116Z,7.10
2022-09-23T23:24:29.113Z,10.20
2022-09-23T23:29:31.994Z,8.50
2022-09-23T23:34:34.805Z,7.10
2022-09-23T23:39:37.594Z,7.60
2022-09-23T23:44:40.619Z,10.80
2022-09-23T23:49:43.366Z,10.60
2022-09-23T23:54:46.308Z,7.70
2022-09-23T23:59:49.599Z,14.80
